Time;durP1;ratioP1;P1;durP2;ratioP2;P2;SDS_P1;SDS_P2;PMS_P1;PMS_P2;Temp;Humidity;BMP_temperature;BMP_pressure;BME280_temperature;BME280_humidity;BME280_pressure;Samples;Min_cycle;Max_cycle;Signal;HPM_P1;HPM_P2
2021/12/29 00:01:29;;;;;;;9.90;1.80;;;;;;;5.41;100.00;96531.41;10459485;28;20041;-61
2021/12/29 00:06:35;;;;;;;11.02;1.73;;;;;;;5.41;100.00;96523.38;10456915;28;20051;-62
2021/12/29 00:11:40;;;;;;;9.82;1.95;;;;;;;5.39;100.00;96536.09;10468828;28;20049;-63
2021/12/29 00:16:43;;;;;;;9.48;1.98;;;;;;;5.37;100.00;96538.94;10465288;28;20047;-60
2021/12/29 00:22:04;;;;;;;7.50;1.77;;;;;;;5.37;100.00;96548.78;10452613;28;20040;-62
2021/12/29 00:27:07;;;;;;;7.75;1.60;;;;;;;5.37;100.00;96564.78;10447397;28;20143;-63
2021/12/29 00:32:10;;;;;;;10.00;2.08;;;;;;;5.36;100.00;96568.47;10458109;28;20055;-58
2021/12/29 00:37:33;;;;;;;6.15;1.60;;;;;;;5.36;100.00;96579.16;10469409;28;20638;-59
2021/12/29 00:42:54;;;;;;;7.32;1.75;;;;;;;5.36;100.00;96589.81;10458513;28;20044;-58
2021/12/29 00:48:17;;;;;;;;;;;;;;;5.30;100.00;96594.03;10454875;28;20622;-59
2021/12/29 00:53:22;;;;;;;7.25;1.80;;;;;;;5.33;100.00;96604.38;10466981;28;19921;-59
2021/12/29 00:58:25;;;;;;;6.57;1.70;;;;;;;5.33;100.00;96616.91;10456408;28;20049;-60
2021/12/29 01:03:29;;;;;;;9.60;1.70;;;;;;;5.33;100.00;96635.59;10451528;28;20064;-61
2021/12/29 01:08:34;;;;;;;5.85;1.67;;;;;;;5.35;100.00;96644.25;10456636;28;20777;-64
2021/12/29 01:13:45;;;;;;;4.97;1.20;;;;;;;5.40;100.00;96650.75;10456878;28;20037;-60
2021/12/29 01:18:48;;;;;;;7.60;1.20;;;;;;;5.47;100.00;96664.22;10463777;28;20054;-61
2021/12/29 01:23:53;;;;;;;4.32;1.00;;;;;;;5.52;100.00;96661.06;10458106;28;20037;-63
2021/12/29 01:28:56;;;;;;;4.07;0.98;;;;;;;5.52;100.00;96664.53;10453351;28;20083;-62
2021/12/29 01:33:59;;;;;;;6.70;1.40;;;;;;;5.61;100.00;96675.19;10460901;28;20045;-58
2021/12/29 01:39:07;;;;;;;4.55;1.08;;;;;;;5.71;100.00;96676.66;10451739;28;20076;-58
2021/12/29 01:44:13;;;;;;;5.35;1.10;;;;;;;5.71;100.00;96673.13;10443178;28;20503;-59
2021/12/29 01:49:20;;;;;;;3.30;0.90;;;;;;;5.76;100.00;96688.69;10463084;28;20553;-61
2021/12/29 01:54:38;;;;;;;3.10;0.80;;;;;;;5.76;100.00;96686.81;10453114;28;20045;-67
2021/12/29 02:00:14;;;;;;;4.97;1.00;;;;;;;5.75;100.00;96701.19;10496028;28;20059;-67
2021/12/29 02:05:18;;;;;;;2.88;1.00;;;;;;;5.79;100.00;96709.69;10509449;28;20049;-65
2021/12/29 02:10:24;;;;;;;4.18;0.93;;;;;;;5.75;100.00;96706.53;10459787;28;20136;-64
2021/12/29 02:15:27;;;;;;;3.00;0.80;;;;;;;5.75;100.00;96711.06;10467605;28;20060;-63
2021/12/29 02:20:31;;;;;;;2.97;0.80;;;;;;;5.69;100.00;96718.75;10459748;28;20044;-60
2021/12/29 02:25:46;;;;;;;3.30;0.93;;;;;;;5.68;100.00;96726.94;10469382;28;20055;-60
2021/12/29 02:30:49;;;;;;;3.47;1.00;;;;;;;5.68;100.00;96734.97;10431928;28;20070;-60
2021/12/29 02:35:55;;;;;;;2.60;0.80;;;;;;;5.67;100.00;96750.13;10450746;28;20060;-57
2021/12/29 02:41:01;;;;;;;2.42;0.85;;;;;;;5.86;100.00;96743.56;10452111;28;20033;-60
2021/12/29 02:46:11;;;;;;;2.17;0.70;;;;;;;5.88;100.00;96763.94;10448808;28;20638;-59
2021/12/29 02:51:15;;;;;;;3.10;0.90;;;;;;;5.86;100.00;96769.47;10443005;28;20132;-62
2021/12/29 02:56:19;;;;;;;3.25;1.05;;;;;;;5.85;100.00;96781.97;10441075;28;20040;-61
2021/12/29 03:01:23;;;;;;;2.92;0.98;;;;;;;5.91;100.00;96783.13;10448860;28;20049;-61
2021/12/29 03:06:28;;;;;;;3.22;0.90;;;;;;;5.88;100.00;96783.47;10449044;28;20556;-62
2021/12/29 03:11:31;;;;;;;2.15;0.90;;;;;;;5.89;100.00;96792.34;10448887;28;20048;-60
2021/12/29 03:16:34;;;;;;;3.33;0.80;;;;;;;5.85;100.00;96802.53;10449027;28;20077;-59
2021/12/29 03:21:39;;;;;;;2.75;0.80;;;;;;;5.81;100.00;96823.44;10451433;28;20405;-63
2021/12/29 03:26:42;;;;;;;2.40;0.93;;;;;;;5.76;100.00;96836.47;10443481;28;20516;-60
2021/12/29 03:31:45;;;;;;;2.75;0.80;;;;;;;5.78;100.00;96837.13;10458719;28;20060;-59
2021/12/29 03:36:50;;;;;;;2.08;0.82;;;;;;;5.83;100.00;96836.63;10463659;28;20124;-61
2021/12/29 03:41:53;;;;;;;3.47;0.80;;;;;;;5.84;100.00;96835.63;10461098;28;20410;-58
2021/12/29 03:46:56;;;;;;;1.35;0.75;;;;;;;5.81;100.00;96842.13;10475592;28;20525;-58
2021/12/29 03:52:02;;;;;;;2.83;0.95;;;;;;;5.79;100.00;96854.84;10451256;28;20041;-63
2021/12/29 03:57:07;;;;;;;2.22;0.70;;;;;;;5.76;100.00;96859.69;10459688;28;20144;-63
2021/12/29 04:02:10;;;;;;;1.95;0.80;;;;;;;5.69;100.00;96871.03;10465741;28;20037;-60
2021/12/29 04:07:15;;;;;;;3.42;0.80;;;;;;;5.63;100.00;96865.53;10466117;28;20052;-59
2021/12/29 04:12:18;;;;;;;2.15;0.75;;;;;;;5.58;100.00;96865.22;10451099;28;20037;-63
2021/12/29 04:17:26;;;;;;;1.50;0.70;;;;;;;5.55;100.00;96871.72;10458742;28;20127;-62
2021/12/29 04:22:31;;;;;;;1.40;0.70;;;;;;;5.52;100.00;96878.22;10461956;28;20067;-63
2021/12/29 04:27:34;;;;;;;3.08;0.88;;;;;;;5.48;100.00;96898.25;10457421;28;20342;-62
2021/12/29 04:32:37;;;;;;;3.95;1.10;;;;;;;5.45;100.00;96898.59;10492372;28;20052;-58
2021/12/29 04:37:42;;;;;;;3.97;1.10;;;;;;;5.41;100.00;96910.59;10486862;28;20040;-58
2021/12/29 04:42:45;;;;;;;1.40;0.90;;;;;;;5.41;100.00;96910.59;10494490;28;20352;-60
2021/12/29 04:47:50;;;;;;;2.22;0.80;;;;;;;5.43;100.00;96921.97;10480872;28;20051;-62
2021/12/29 04:52:56;;;;;;;2.92;1.10;;;;;;;5.42;100.00;96922.97;10485735;28;20041;-60
2021/12/29 04:58:00;;;;;;;2.03;1.00;;;;;;;5.39;100.00;96923.28;10486823;28;20508;-61
2021/12/29 05:03:04;;;;;;;2.03;1.27;;;;;;;5.36;100.00;96931.63;10469519;28;20048;-55
2021/12/29 05:13:41;;;;;;;3.70;1.60;;;;;;;5.31;100.00;96955.31;10454713;28;20063;-57
2021/12/29 05:18:45;;;;;;;2.65;1.40;;;;;;;5.29;100.00;96962.66;10507304;28;20386;-58
2021/12/29 05:23:50;;;;;;;3.95;1.35;;;;;;;5.27;100.00;96965.50;10491499;28;20114;-56
2021/12/29 05:28:53;;;;;;;2.88;1.55;;;;;;;5.24;100.00;96966.66;10498588;28;20045;-53
2021/12/29 05:33:56;;;;;;;3.38;1.80;;;;;;;5.23;100.00;96980.16;10489603;28;20513;-60
2021/12/29 05:39:00;;;;;;;4.78;2.13;;;;;;;5.20;100.00;96981.34;10498695;28;20134;-54
2021/12/29 05:44:04;;;;;;;6.05;2.38;;;;;;;5.16;100.00;96988.00;10493503;28;20031;-59
2021/12/29 05:49:07;;;;;;;3.47;2.00;;;;;;;5.18;100.00;97009.19;10486619;28;20590;-60
2021/12/29 05:54:12;;;;;;;6.78;2.85;;;;;;;5.16;100.00;97016.53;10485704;28;20032;-59
2021/12/29 05:59:15;;;;;;;6.20;2.88;;;;;;;5.12;100.00;97021.34;10498047;28;20093;-62
2021/12/29 06:04:19;;;;;;;5.95;3.50;;;;;;;5.12;100.00;97042.69;10498041;28;20040;-57
2021/12/29 06:09:23;;;;;;;6.97;3.92;;;;;;;5.12;100.00;97041.88;10498356;28;20044;-56
2021/12/29 06:14:26;;;;;;;9.48;4.40;;;;;;;5.11;100.00;97040.19;10473180;28;20048;-54
2021/12/29 06:19:30;;;;;;;7.95;4.15;;;;;;;5.12;100.00;97044.53;10484814;28;20079;-60
2021/12/29 06:24:34;;;;;;;9.93;5.38;;;;;;;5.07;100.00;97064.53;10495223;28;20044;-53
2021/12/29 06:29:38;;;;;;;11.63;5.03;;;;;;;5.07;100.00;97066.38;10487647;28;20446;-63
2021/12/29 06:34:41;;;;;;;9.35;5.40;;;;;;;5.08;100.00;97068.06;10500202;28;20049;-58
2021/12/29 06:39:47;;;;;;;12.88;6.63;;;;;;;5.06;100.00;97080.72;10497776;28;20464;-63
2021/12/29 06:44:50;;;;;;;9.60;6.28;;;;;;;5.09;100.00;97091.91;10497034;28;20048;-54
2021/12/29 06:49:53;;;;;;;7.63;5.43;;;;;;;5.10;100.00;97098.09;10487345;28;20049;-63
2021/12/29 06:54:57;;;;;;;9.38;6.15;;;;;;;5.10;100.00;97103.44;10492672;28;20033;-60
2021/12/29 07:00:00;;;;;;;10.88;5.38;;;;;;;5.13;100.00;97112.97;10502367;28;20036;-58
2021/12/29 07:05:04;;;;;;;8.93;5.68;;;;;;;5.13;100.00;97127.13;10500518;28;20045;-64
2021/12/29 07:10:09;;;;;;;8.85;6.07;;;;;;;5.14;100.00;97136.81;10500542;28;20041;-58
2021/12/29 07:15:12;;;;;;;8.55;5.97;;;;;;;5.15;100.00;97143.00;10502743;28;20043;-57
2021/12/29 07:20:15;;;;;;;8.18;6.15;;;;;;;5.12;100.00;97146.81;10476181;28;20060;-58
2021/12/29 07:25:22;;;;;;;9.63;6.22;;;;;;;5.15;100.00;97154.50;10510198;28;20044;-54
2021/12/29 07:30:25;;;;;;;9.60;7.18;;;;;;;5.13;100.00;97161.00;10504499;28;20040;-58
2021/12/29 07:35:28;;;;;;;11.98;7.82;;;;;;;5.14;100.00;97155.50;10503736;28;20044;-59
2021/12/29 07:40:34;;;;;;;10.90;7.97;;;;;;;5.17;100.00;97162.38;10505706;28;20058;-59
2021/12/29 07:45:41;;;;;;;7.25;6.55;;;;;;;5.18;100.00;97161.34;10502057;28;20072;-63
2021/12/29 07:50:45;;;;;;;9.38;7.32;;;;;;;5.19;100.00;97182.56;10495685;28;20036;-60
2021/12/29 07:55:50;;;;;;;9.75;7.60;;;;;;;5.21;100.00;97191.28;10496128;28;20047;-55
2021/12/29 08:00:53;;;;;;;9.27;7.38;;;;;;;5.24;100.00;97201.63;10498321;28;20050;-61
2021/12/29 08:05:56;;;;;;;11.07;8.45;;;;;;;5.24;100.00;97216.81;10479366;28;20036;-58
2021/12/29 08:11:03;;;;;;;15.18;9.02;;;;;;;5.24;100.00;97224.81;10492806;28;20044;-62
2021/12/29 08:16:06;;;;;;;11.18;8.98;;;;;;;5.26;100.00;97222.84;10493277;28;20377;-57
2021/12/29 08:21:10;;;;;;;12.77;9.13;;;;;;;5.34;100.00;97236.22;10493427;28;20104;-64
2021/12/29 08:26:14;;;;;;;12.90;8.95;;;;;;;5.48;100.00;97240.13;10489514;28;20040;-62
2021/12/29 08:31:17;;;;;;;8.68;5.28;;;;;;;5.79;100.00;97236.97;10488346;28;20052;-64
2021/12/29 08:36:21;;;;;;;4.53;2.28;;;;;;;6.29;100.00;97242.53;10496029;28;20045;-64
2021/12/29 08:41:25;;;;;;;2.35;1.48;;;;;;;6.50;100.00;97244.72;10484539;28;20416;-60
2021/12/29 08:46:30;;;;;;;0.98;0.90;;;;;;;6.73;100.00;97244.94;10485896;28;20505;-55
2021/12/29 08:51:33;;;;;;;0.88;0.80;;;;;;;6.89;100.00;97248.63;10491481;28;20516;-57
2021/12/29 08:56:39;;;;;;;2.15;1.23;;;;;;;6.97;100.00;97259.34;10492799;28;20509;-61
2021/12/29 09:01:42;;;;;;;1.27;0.80;;;;;;;7.03;100.00;97274.72;10491391;28;20041;-59
2021/12/29 09:06:46;;;;;;;0.70;0.70;;;;;;;7.16;100.00;97268.88;10492187;28;20036;-60
2021/12/29 09:11:50;;;;;;;0.60;0.60;;;;;;;7.37;100.00;97271.03;10494313;28;20514;-63
2021/12/29 09:16:53;;;;;;;0.40;0.40;;;;;;;7.51;100.00;97303.50;10494831;28;20826;-60
2021/12/29 09:21:56;;;;;;;0.60;0.60;;;;;;;7.51;100.00;97307.03;10495512;28;20420;-56
2021/12/29 09:27:01;;;;;;;0.55;0.55;;;;;;;7.47;100.00;97313.72;10501407;28;20051;-63
2021/12/29 09:32:05;;;;;;;2.38;0.70;;;;;;;7.44;100.00;97321.28;10500232;28;20127;-59
2021/12/29 09:37:08;;;;;;;0.75;0.70;;;;;;;7.49;100.00;97314.41;10494489;28;20050;-64
2021/12/29 09:42:13;;;;;;;1.60;0.80;;;;;;;7.48;100.00;97333.31;10493164;28;20048;-59
2021/12/29 09:47:16;;;;;;;2.13;1.00;;;;;;;7.49;100.00;97332.31;10487525;28;20047;-60
2021/12/29 09:52:19;;;;;;;0.90;0.80;;;;;;;7.49;100.00;97335.00;10497333;28;20054;-57
2021/12/29 09:57:23;;;;;;;1.42;0.75;;;;;;;7.52;100.00;97322.13;10499821;28;20403;-62
2021/12/29 10:02:27;;;;;;;0.60;0.60;;;;;;;7.55;100.00;97326.28;10507669;28;20043;-62
2021/12/29 10:07:31;;;;;;;1.90;0.60;;;;;;;7.56;100.00;97325.28;10491092;28;20533;-63
2021/12/29 10:12:44;;;;;;;0.45;0.35;;;;;;;7.61;100.00;97324.78;10489355;28;20033;-60
2021/12/29 10:17:47;;;;;;;0.35;0.35;;;;;;;7.67;100.00;97324.94;10495192;28;20405;-60
2021/12/29 10:22:59;;;;;;;0.57;0.40;;;;;;;7.73;100.00;97326.09;10500051;28;20040;-56
2021/12/29 10:28:22;;;;;;;0.50;0.47;;;;;;;7.75;100.00;97344.69;10490278;28;20064;-59
2021/12/29 10:33:30;;;;;;;0.68;0.40;;;;;;;7.75;100.00;97352.72;10500934;28;20075;-61
2021/12/29 10:38:33;;;;;;;1.23;0.70;;;;;;;7.76;100.00;97357.09;10506888;28;20045;-53
2021/12/29 10:43:40;;;;;;;1.90;1.02;;;;;;;7.80;100.00;97363.78;10495797;28;20072;-61
2021/12/29 10:48:47;;;;;;;1.05;0.95;;;;;;;7.80;100.00;97353.06;10506624;28;20132;-62
2021/12/29 10:53:50;;;;;;;1.17;1.00;;;;;;;7.88;100.00;97349.53;10490441;28;20047;-60
2021/12/29 10:58:55;;;;;;;1.00;1.00;;;;;;;7.89;100.00;97357.41;10499079;28;20055;-63
2021/12/29 11:03:58;;;;;;;0.70;0.70;;;;;;;7.90;100.00;97356.41;10508259;28;20036;-57
2021/12/29 11:09:02;;;;;;;2.22;1.00;;;;;;;7.84;100.00;97370.47;10507947;28;20056;-62
2021/12/29 11:14:13;;;;;;;2.22;1.20;;;;;;;7.77;100.00;97382.88;10536664;28;20164;-60
2021/12/29 11:19:33;;;;;;;1.50;1.13;;;;;;;7.73;100.00;97385.06;10556334;28;20048;-66
2021/12/29 11:24:36;;;;;;;2.03;1.30;;;;;;;7.74;100.00;97389.44;10556329;28;20032;-61
2021/12/29 11:29:51;;;;;;;1.50;1.15;;;;;;;7.76;100.00;97399.97;10523496;28;20059;-63
2021/12/29 11:35:08;;;;;;;1.38;1.10;;;;;;;7.82;100.00;97393.97;10509343;28;20048;-63
2021/12/29 11:40:16;;;;;;;1.60;1.05;;;;;;;7.90;100.00;97401.97;10507908;28;20044;-62
2021/12/29 11:45:24;;;;;;;2.58;0.80;;;;;;;7.96;100.00;97401.28;10501122;28;20091;-63
2021/12/29 11:50:30;;;;;;;2.33;0.80;;;;;;;8.05;100.00;97409.34;10496065;28;20055;-59
2021/12/29 11:55:35;;;;;;;1.80;1.00;;;;;;;8.03;100.00;97417.53;10504676;28;20036;-62
2021/12/29 12:00:39;;;;;;;1.00;0.90;;;;;;;8.06;100.00;97411.84;10501997;28;20044;-58
2021/12/29 12:05:47;;;;;;;3.00;1.00;;;;;;;8.08;100.00;97404.47;10506171;28;21303;-65
2021/12/29 12:10:51;;;;;;;1.17;0.98;;;;;;;8.11;100.00;97414.00;10500759;28;20045;-63
2021/12/29 12:16:07;;;;;;;1.15;0.90;;;;;;;8.12;100.00;97395.06;10503851;28;20047;-64
2021/12/29 12:21:21;;;;;;;1.60;0.90;;;;;;;8.20;100.00;97390.69;10506485;28;20102;-64
2021/12/29 12:26:25;;;;;;;1.85;0.77;;;;;;;8.26;100.00;97387.31;10488709;28;20052;-64
2021/12/29 12:31:32;;;;;;;1.17;0.88;;;;;;;8.29;100.00;97395.03;10501873;28;20051;-62
2021/12/29 12:36:36;;;;;;;1.00;0.90;;;;;;;8.32;100.00;97398.19;10506134;28;20050;-62
2021/12/29 12:41:41;;;;;;;2.13;0.90;;;;;;;8.32;100.00;97387.47;10488024;28;20048;-61
2021/12/29 12:46:48;;;;;;;1.63;0.90;;;;;;;8.36;100.00;97384.44;10486012;28;20047;-63
2021/12/29 12:51:56;;;;;;;1.65;0.63;;;;;;;8.39;100.00;97397.53;10494641;28;20565;-64
2021/12/29 12:57:02;;;;;;;1.35;0.57;;;;;;;8.40;100.00;97405.38;10486748;28;20040;-61
2021/12/29 13:02:18;;;;;;;0.85;0.70;;;;;;;8.36;100.00;97427.38;10489738;28;20049;-64
2021/12/29 13:07:23;;;;;;;0.82;0.60;;;;;;;8.37;100.00;97429.88;10475477;28;20047;-64
2021/12/29 13:12:27;;;;;;;0.75;0.70;;;;;;;8.35;100.00;97449.84;10480972;28;20050;-64
2021/12/29 13:17:32;;;;;;;1.00;0.50;;;;;;;8.32;100.00;97438.44;10494019;28;20369;-58
2021/12/29 13:22:36;;;;;;;0.45;0.40;;;;;;;8.24;100.00;97451.88;10494009;28;20122;-55
2021/12/29 13:27:42;;;;;;;0.73;0.50;;;;;;;8.30;100.00;97459.25;10464922;28;20037;-56
2021/12/29 13:32:51;;;;;;;0.40;0.35;;;;;;;8.26;100.00;97481.22;10487262;28;20060;-59
2021/12/29 13:37:58;;;;;;;2.00;0.60;;;;;;;8.29;100.00;97487.09;10492342;28;20556;-63
2021/12/29 13:43:02;;;;;;;0.68;0.50;;;;;;;8.26;100.00;97494.66;10493017;28;20048;-62
2021/12/29 13:48:14;;;;;;;0.60;0.50;;;;;;;8.23;100.00;97495.81;10498491;28;20040;-58
2021/12/29 13:53:17;;;;;;;0.57;0.40;;;;;;;8.23;100.00;97503.88;10501056;28;20070;-61
2021/12/29 13:58:21;;;;;;;1.58;0.65;;;;;;;8.21;100.00;97513.94;10514407;28;20074;-61
2021/12/29 14:03:25;;;;;;;1.27;0.60;;;;;;;8.14;100.00;97512.94;10497451;28;20420;-55
2021/12/29 14:08:30;;;;;;;0.95;0.57;;;;;;;8.06;100.00;97529.00;10503543;28;20037;-58
2021/12/29 14:13:40;;;;;;;0.93;0.60;;;;;;;7.99;100.00;97526.19;10497475;28;20040;-63
2021/12/29 14:18:54;;;;;;;0.90;0.80;;;;;;;7.92;100.00;97538.56;10502511;28;20044;-63
2021/12/29 14:23:59;;;;;;;0.77;0.75;;;;;;;7.84;100.00;97544.75;10501476;28;20045;-57
2021/12/29 14:29:04;;;;;;;4.28;0.90;;;;;;;7.78;100.00;97540.06;10476517;28;20417;-61
2021/12/29 14:34:10;;;;;;;2.03;0.80;;;;;;;7.66;100.00;97556.47;10452409;28;20052;-56
2021/12/29 14:39:16;;;;;;;1.30;1.00;;;;;;;7.54;100.00;97565.81;10469616;28;20074;-56
2021/12/29 14:44:19;;;;;;;1.40;1.02;;;;;;;7.50;100.00;97575.19;10454116;28;20047;-58
2021/12/29 14:49:30;;;;;;;1.55;1.13;;;;;;;7.47;100.00;97578.19;10452761;28;20048;-55
2021/12/29 14:54:36;;;;;;;1.45;1.00;;;;;;;7.43;100.00;97584.88;10440220;28;20029;-61
2021/12/29 14:59:40;;;;;;;3.13;1.20;;;;;;;7.38;100.00;97586.19;10447016;28;20405;-58
2021/12/29 15:04:57;;;;;;;1.40;1.30;;;;;;;7.33;100.00;97577.81;10457463;28;20064;-66
2021/12/29 15:10:06;;;;;;;1.50;1.40;;;;;;;7.29;100.00;97595.22;10487880;28;20657;-56
2021/12/29 15:15:19;;;;;;;3.70;1.40;;;;;;;7.29;100.00;97586.34;10485628;28;20685;-62
2021/12/29 15:20:24;;;;;;;2.25;1.70;;;;;;;7.29;100.00;97591.72;10466043;28;20053;-55
2021/12/29 15:25:28;;;;;;;2.47;1.80;;;;;;;7.26;100.00;97595.53;10461323;28;20402;-67
2021/12/29 15:30:35;;;;;;;3.05;2.33;;;;;;;7.25;100.00;97596.53;10458653;28;20048;-57
2021/12/29 15:35:41;;;;;;;1.73;1.58;;;;;;;7.24;100.00;97600.19;10492431;28;20774;-57
2021/12/29 15:40:45;;;;;;;1.55;0.95;;;;;;;7.29;100.00;97613.97;10507972;28;20068;-64
2021/12/29 15:45:49;;;;;;;1.25;0.98;;;;;;;7.34;100.00;97608.97;10503693;28;20093;-59
2021/12/29 15:50:57;;;;;;;1.02;1.02;;;;;;;7.31;100.00;97620.00;10500869;28;20040;-55
2021/12/29 15:56:02;;;;;;;1.95;1.30;;;;;;;7.28;100.00;97614.97;10495056;28;20040;-55
2021/12/29 16:01:05;;;;;;;1.80;1.23;;;;;;;7.28;100.00;97601.56;10491975;28;20433;-58
2021/12/29 16:06:11;;;;;;;3.80;1.23;;;;;;;7.26;100.00;97587.47;10498570;28;20093;-57
2021/12/29 16:11:15;;;;;;;1.48;1.20;;;;;;;7.27;100.00;97588.34;10503172;28;20048;-60
2021/12/29 16:16:18;;;;;;;1.40;1.30;;;;;;;7.26;100.00;97587.47;10521277;28;20045;-58
2021/12/29 16:21:23;;;;;;;2.40;1.20;;;;;;;7.22;100.00;97588.81;10495103;28;20516;-59
2021/12/29 16:26:26;;;;;;;2.20;1.60;;;;;;;7.19;100.00;97583.78;10505124;28;20048;-64
2021/12/29 16:31:32;;;;;;;2.58;1.60;;;;;;;7.21;100.00;97579.13;10470879;28;20052;-57
2021/12/29 16:36:37;;;;;;;2.28;1.27;;;;;;;7.20;100.00;97572.06;10468979;28;20759;-69
2021/12/29 16:41:40;;;;;;;1.50;1.40;;;;;;;7.23;100.00;97569.06;10493517;28;20037;-59
2021/12/29 16:46:44;;;;;;;1.60;1.45;;;;;;;7.25;100.00;97580.44;10489773;28;20045;-58
2021/12/29 16:51:48;;;;;;;2.65;1.80;;;;;;;7.25;100.00;97575.09;10491721;28;20568;-59
2021/12/29 16:56:52;;;;;;;2.00;1.80;;;;;;;7.23;100.00;97571.75;10492284;28;20036;-55
2021/12/29 17:01:56;;;;;;;2.33;2.08;;;;;;;7.23;100.00;97566.41;10476958;28;20041;-62
2021/12/29 17:07:01;;;;;;;2.33;2.13;;;;;;;7.23;100.00;97571.75;10484791;28;20048;-56
2021/12/29 17:12:05;;;;;;;2.53;2.33;;;;;;;7.20;100.00;97580.94;10482766;28;20044;-57
2021/12/29 17:17:08;;;;;;;2.38;2.00;;;;;;;7.18;100.00;97579.41;10491819;28;20044;-56
2021/12/29 17:22:13;;;;;;;3.58;2.63;;;;;;;7.16;100.00;97581.41;10497645;28;20101;-59
2021/12/29 17:27:16;;;;;;;4.28;3.10;;;;;;;7.08;100.00;97583.06;10501645;28;20418;-55
2021/12/29 17:32:19;;;;;;;3.28;2.88;;;;;;;7.07;100.00;97585.88;10499730;28;20498;-54
2021/12/29 17:37:23;;;;;;;7.47;3.88;;;;;;;7.06;100.00;97592.25;10502124;28;20040;-57
2021/12/29 17:42:28;;;;;;;3.47;2.90;;;;;;;7.01;100.00;97595.41;10491990;28;20123;-58
2021/12/29 17:47:44;;;;;;;5.15;2.80;;;;;;;6.93;100.00;97595.38;10489137;28;20050;-62
2021/12/29 17:52:52;;;;;;;4.88;3.10;;;;;;;6.88;100.00;97592.34;10494327;28;20044;-60
2021/12/29 17:57:55;;;;;;;5.25;4.78;;;;;;;6.84;100.00;97599.00;10510577;28;20036;-58
2021/12/29 18:02:59;;;;;;;4.95;4.45;;;;;;;6.80;100.00;97606.50;10504828;28;20428;-59
2021/12/29 18:08:04;;;;;;;3.95;3.50;;;;;;;6.78;100.00;97600.47;10497739;28;20040;-58
2021/12/29 18:13:07;;;;;;;4.63;4.10;;;;;;;6.76;100.00;97614.00;10495355;28;20039;-55
2021/12/29 18:18:11;;;;;;;4.75;3.58;;;;;;;6.76;100.00;97597.09;10494758;28;20044;-62
2021/12/29 18:23:15;;;;;;;5.68;5.07;;;;;;;6.71;100.00;97599.41;10481015;28;20406;-61
2021/12/29 18:28:19;;;;;;;4.90;3.60;;;;;;;6.64;100.00;97593.84;10491401;28;20066;-58
2021/12/29 18:33:22;;;;;;;5.18;4.35;;;;;;;6.57;100.00;97587.44;10499794;28;20054;-61
2021/12/29 18:38:27;;;;;;;5.13;4.63;;;;;;;6.50;100.00;97586.41;10486544;28;20047;-60
2021/12/29 18:43:30;;;;;;;5.15;4.10;;;;;;;6.46;100.00;97583.19;10494446;28;20047;-59
2021/12/29 18:48:33;;;;;;;6.30;4.47;;;;;;;6.47;100.00;97566.13;10496541;28;20059;-60
2021/12/29 18:53:38;;;;;;;7.78;7.05;;;;;;;6.42;100.00;97553.22;10500638;28;20143;-59
2021/12/29 18:58:41;;;;;;;30.83;21.00;;;;;;;6.39;100.00;97547.34;10491465;28;20033;-60
2021/12/29 19:03:44;;;;;;;6.07;4.50;;;;;;;6.34;100.00;97560.34;10511983;28;20086;-60
2021/12/29 19:08:51;;;;;;;5.40;3.95;;;;;;;6.33;100.00;97556.81;10504903;28;20044;-65
2021/12/29 19:13:55;;;;;;;4.50;3.50;;;;;;;6.32;100.00;97555.16;10502796;28;20044;-63
2021/12/29 19:18:59;;;;;;;3.53;3.00;;;;;;;6.34;100.00;97555.00;10503592;28;20044;-65
2021/12/29 19:24:04;;;;;;;3.85;3.33;;;;;;;6.37;100.00;97544.84;10499685;28;20104;-63
2021/12/29 19:29:08;;;;;;;3.70;3.10;;;;;;;6.41;100.00;97548.84;10487689;28;20046;-66
2021/12/29 19:34:11;;;;;;;5.07;3.85;;;;;;;6.42;100.00;97550.53;10467501;28;20064;-64
2021/12/29 19:39:21;;;;;;;5.32;3.30;;;;;;;6.42;100.00;97553.22;10460681;28;20049;-64
2021/12/29 19:44:24;;;;;;;5.95;4.18;;;;;;;6.43;100.00;97570.94;10463787;28;20052;-63
2021/12/29 19:49:28;;;;;;;6.85;5.60;;;;;;;6.43;100.00;97554.06;10468649;28;20045;-65
2021/12/29 19:54:32;;;;;;;3.90;3.10;;;;;;;6.43;100.00;97549.53;10455950;28;20049;-61
2021/12/29 19:59:35;;;;;;;4.70;3.47;;;;;;;6.43;100.00;97554.06;10476895;28;20482;-63
2021/12/29 20:04:39;;;;;;;6.28;4.10;;;;;;;6.42;100.00;97545.19;10452629;28;20041;-63
2021/12/29 20:09:44;;;;;;;7.00;4.50;;;;;;;6.43;100.00;97554.88;10453518;28;20048;-62
2021/12/29 20:14:49;;;;;;;8.48;3.50;;;;;;;6.43;100.00;97560.25;10459727;28;20124;-65
2021/12/29 20:19:53;;;;;;;7.22;4.38;;;;;;;6.40;100.00;97570.41;10454932;28;20045;-67
2021/12/29 20:24:57;;;;;;;7.95;4.15;;;;;;;6.36;100.00;97591.31;10452707;28;20049;-65
2021/12/29 20:30:01;;;;;;;10.13;4.45;;;;;;;6.35;100.00;97588.78;10460959;28;20047;-65
2021/12/29 20:35:07;;;;;;;6.65;4.60;;;;;;;6.36;100.00;97606.50;10511924;28;20065;-66
2021/12/29 20:40:14;;;;;;;5.53;4.05;;;;;;;6.35;100.00;97594.97;10484379;28;20045;-65
2021/12/29 20:45:17;;;;;;;7.60;4.60;;;;;;;6.35;100.00;97600.31;10493253;28;20048;-65
2021/12/29 20:50:21;;;;;;;8.88;5.15;;;;;;;6.36;100.00;97596.66;10504435;28;20059;-63
2021/12/29 20:55:25;;;;;;;8.20;5.20;;;;;;;6.34;100.00;97587.94;10500018;28;20290;-64
2021/12/29 21:00:28;;;;;;;7.18;4.93;;;;;;;6.34;100.00;97604.00;10501853;28;20045;-64
2021/12/29 21:05:37;;;;;;;8.52;5.75;;;;;;;6.34;100.00;97590.59;10500949;28;20461;-64
2021/12/29 21:10:41;;;;;;;7.60;4.70;;;;;;;6.37;100.00;97594.81;10490918;28;20037;-63
2021/12/29 21:15:47;;;;;;;9.00;5.28;;;;;;;6.37;100.00;97586.78;10497278;28;20470;-65
2021/12/29 21:21:11;;;;;;;7.85;4.90;;;;;;;6.39;100.00;97596.34;10484759;28;20068;-66
2021/12/29 21:26:17;;;;;;;8.43;4.50;;;;;;;6.41;100.00;97577.44;10501273;28;20048;-65
2021/12/29 21:31:23;;;;;;;5.55;3.78;;;;;;;6.43;100.00;97554.06;10498951;28;20079;-67
2021/12/29 21:36:28;;;;;;;6.25;3.88;;;;;;;6.44;100.00;97556.56;10496794;28;20035;-67
2021/12/29 21:41:32;;;;;;;5.40;3.30;;;;;;;6.47;100.00;97548.25;10509361;28;20040;-66
2021/12/29 21:46:37;;;;;;;7.47;4.13;;;;;;;6.50;100.00;97583.72;10469907;28;20046;-67
2021/12/29 21:51:42;;;;;;;5.32;3.70;;;;;;;6.55;100.00;97603.66;10502737;28;20044;-65
2021/12/29 21:56:46;;;;;;;5.43;2.92;;;;;;;6.60;100.00;97611.22;10503707;28;20041;-63
2021/12/29 22:01:50;;;;;;;10.15;6.93;;;;;;;6.62;100.00;97623.44;10476697;28;20086;-64
2021/12/29 22:06:53;;;;;;;4.60;3.70;;;;;;;6.68;100.00;97640.72;10493534;28;20479;-63
2021/12/29 22:11:58;;;;;;;7.47;4.95;;;;;;;6.71;100.00;97640.41;10486800;28;20050;-63
2021/12/29 22:17:02;;;;;;;8.65;6.38;;;;;;;6.69;100.00;97629.00;10501609;28;20043;-62
2021/12/29 22:22:05;;;;;;;18.88;12.57;;;;;;;6.67;100.00;97625.63;10494833;28;20055;-63
2021/12/29 22:27:11;;;;;;;25.38;18.58;;;;;;;6.67;100.00;97639.03;10486692;28;20134;-61
2021/12/29 22:32:14;;;;;;;5.55;4.90;;;;;;;6.68;100.00;97643.38;10504015;28;20037;-65
2021/12/29 22:37:18;;;;;;;6.68;5.00;;;;;;;6.66;100.00;97642.69;10545397;28;20497;-63
2021/12/29 22:42:24;;;;;;;8.30;5.22;;;;;;;6.66;100.00;97637.34;10510090;28;20108;-63
2021/12/29 22:47:27;;;;;;;7.78;4.80;;;;;;;6.66;100.00;97629.31;10529484;28;20075;-64
2021/12/29 22:52:30;;;;;;;30.80;18.90;;;;;;;6.68;100.00;97630.00;10513114;28;20136;-63
2021/12/29 22:57:35;;;;;;;8.20;4.93;;;;;;;6.70;100.00;97635.22;10496647;28;20045;-63
2021/12/29 23:02:38;;;;;;;7.00;4.20;;;;;;;6.74;100.00;97641.91;10512944;28;20412;-63
2021/12/29 23:07:42;;;;;;;5.70;3.70;;;;;;;6.73;100.00;97651.81;10515093;28;20089;-62
2021/12/29 23:12:47;;;;;;;8.88;4.38;;;;;;;6.75;100.00;97644.47;10509444;28;20056;-60
2021/12/29 23:17:51;;;;;;;4.32;3.20;;;;;;;6.79;100.00;97647.66;10497141;28;20044;-60
2021/12/29 23:23:01;;;;;;;7.50;5.05;;;;;;;6.79;100.00;97653.00;10502110;28;20408;-60
2021/12/29 23:28:14;;;;;;;5.22;4.55;;;;;;;6.81;100.00;97652.84;10500644;28;20076;-64
2021/12/29 23:33:20;;;;;;;5.20;4.10;;;;;;;6.81;100.00;97655.53;10478282;28;20059;-62
2021/12/29 23:38:25;;;;;;;7.05;4.25;;;;;;;6.83;100.00;97658.88;10479888;28;20050;-59
2021/12/29 23:43:31;;;;;;;5.78;4.10;;;;;;;6.82;100.00;97660.72;10475379;28;20410;-62